Hovedside
METAR-TAF:

METAR-TAF

Lufthavner :

Salak

Maroua, Kamerun

breddegrad: 10-27N, lengdegrad: 014-15E, høyde over havet: 423 m

Gjeldene værobservasjon

Denne rapporten ble laget for 57 minutter siden, klokken 16:00 UTC
Temperatur 36°C
Luftfuktighet 14%
Trykk 1010 hPa
Sikt 10 km eller mer
ingen skyer under 1500 m og ingen bygeskyer

METAR: FKKL 311600Z /////KT CAVOK 36/04 Q1010

Tid: 17:57 (16:57 UTC)

Varsel

Denne rapporten ble laget for 11 timer og 57 minutter siden, klokken 05:00 UTC
Varsel gyldig fra 31. klokken 06 UTC til 31. klokken 18 UTC
Vind 5 kt fra Øst
Sikt 10 km eller mer
ingen skyer under 1500 m og ingen bygeskyer
Sannsynlighet 40% :
Midlertidig
fra 31. klokken 07 UTC til 31. klokken 12 UTC
Sikt: 4000 m
mye støv

TAF: FKKL 310500Z 3106/3118 08005KT CAVOK PROB40 TEMPO 3107/3112 4000 DU

Værobservasjoner og værvarsel for over 4000 flyplasser (METAR- og TAF-rapporter).

Tilgjengelige stasjoner er representert av de røde og gule prikkene på kartet.

Hold musepekeren over prikken for å se navnet på stasjonen.

Klikk så for å se værobservasjoner og -varsler.

For å forandre kartet kan du klikke på den grønne knappen med svart kryss for å zoome inn, på den grønne knappen med strek for å zoome ut, eller på de grønne pilene for å se tilstøtende kart.


METAR-TAF: